sensor_id;sensor_type;location;lat;lon;timestamp;temperature;humidity
54126;DHT22;40360;52.992;6.796;2022-08-18T00:02:17;18.60;99.90
54126;DHT22;40360;52.992;6.796;2022-08-18T00:04:43;18.60;99.90
54126;DHT22;40360;52.992;6.796;2022-08-18T00:07:14;18.60;99.90
54126;DHT22;40360;52.992;6.796;2022-08-18T00:09:40;18.60;99.90
54126;DHT22;40360;52.992;6.796;2022-08-18T00:12:17;18.60;99.90
54126;DHT22;40360;52.992;6.796;2022-08-18T00:14:44;18.60;99.90
54126;DHT22;40360;52.992;6.796;2022-08-18T00:17:10;19.00;99.90
54126;DHT22;40360;52.992;6.796;2022-08-18T00:19:36;18.60;99.90
54126;DHT22;40360;52.992;6.796;2022-08-18T00:22:02;18.60;99.90
54126;DHT22;40360;52.992;6.796;2022-08-18T00:24:27;18.60;99.90
54126;DHT22;40360;52.992;6.796;2022-08-18T00:26:53;18.60;99.90
54126;DHT22;40360;52.992;6.796;2022-08-18T00:29:19;18.60;99.90
54126;DHT22;40360;52.992;6.796;2022-08-18T00:31:45;18.60;99.90
54126;DHT22;40360;52.992;6.796;2022-08-18T00:34:10;18.90;99.90
54126;DHT22;40360;52.992;6.796;2022-08-18T00:36:36;18.50;99.90
54126;DHT22;40360;52.992;6.796;2022-08-18T00:39:02;18.50;99.90
54126;DHT22;40360;52.992;6.796;2022-08-18T00:41:28;18.50;99.90
54126;DHT22;40360;52.992;6.796;2022-08-18T00:43:55;18.50;99.90
54126;DHT22;40360;52.992;6.796;2022-08-18T00:46:32;18.50;99.90
54126;DHT22;40360;52.992;6.796;2022-08-18T00:48:58;18.50;99.90
54126;DHT22;40360;52.992;6.796;2022-08-18T00:51:25;19.00;99.90
54126;DHT22;40360;52.992;6.796;2022-08-18T00:54:11;18.60;99.90
54126;DHT22;40360;52.992;6.796;2022-08-18T00:57:01;18.40;99.90
54126;DHT22;40360;52.992;6.796;2022-08-18T00:59:38;18.40;99.90
54126;DHT22;40360;52.992;6.796;2022-08-18T01:02:19;18.40;99.90
54126;DHT22;40360;52.992;6.796;2022-08-18T01:05:05;18.40;99.90
54126;DHT22;40360;52.992;6.796;2022-08-18T01:07:39;18.40;99.90
54126;DHT22;40360;52.992;6.796;2022-08-18T01:10:10;18.40;99.90
54126;DHT22;40360;52.992;6.796;2022-08-18T01:12:40;19.10;99.90
54126;DHT22;40360;52.992;6.796;2022-08-18T01:15:06;18.40;99.90
54126;DHT22;40360;52.992;6.796;2022-08-18T01:17:32;18.40;99.90
54126;DHT22;40360;52.992;6.796;2022-08-18T01:20:21;18.40;99.90
54126;DHT22;40360;52.992;6.796;2022-08-18T01:23:16;18.40;99.90
54126;DHT22;40360;52.992;6.796;2022-08-18T01:25:43;18.40;99.90
54126;DHT22;40360;52.992;6.796;2022-08-18T01:28:31;18.40;99.90
54126;DHT22;40360;52.992;6.796;2022-08-18T01:30:58;18.40;99.90
54126;DHT22;40360;52.992;6.796;2022-08-18T01:33:27;18.40;99.90
54126;DHT22;40360;52.992;6.796;2022-08-18T01:36:02;18.80;99.90
54126;DHT22;40360;52.992;6.796;2022-08-18T01:38:30;18.40;99.90
54126;DHT22;40360;52.992;6.796;2022-08-18T01:40:58;18.50;99.90
54126;DHT22;40360;52.992;6.796;2022-08-18T01:43:25;18.40;99.90
54126;DHT22;40360;52.992;6.796;2022-08-18T01:45:50;18.40;99.90
54126;DHT22;40360;52.992;6.796;2022-08-18T01:48:16;18.30;99.90
54126;DHT22;40360;52.992;6.796;2022-08-18T01:50:42;18.30;99.90
54126;DHT22;40360;52.992;6.796;2022-08-18T01:53:09;18.30;99.90
54126;DHT22;40360;52.992;6.796;2022-08-18T01:55:37;18.30;99.90
54126;DHT22;40360;52.992;6.796;2022-08-18T01:58:05;18.30;99.90
54126;DHT22;40360;52.992;6.796;2022-08-18T02:00:33;18.90;99.90
54126;DHT22;40360;52.992;6.796;2022-08-18T02:03:00;18.20;99.90
54126;DHT22;40360;52.992;6.796;2022-08-18T02:05:42;18.10;99.90
54126;DHT22;40360;52.992;6.796;2022-08-18T02:08:09;18.00;99.90
54126;DHT22;40360;52.992;6.796;2022-08-18T02:10:37;17.90;99.90
54126;DHT22;40360;52.992;6.796;2022-08-18T02:13:04;17.80;99.90
54126;DHT22;40360;52.992;6.796;2022-08-18T02:15:30;17.80;99.90
54126;DHT22;40360;52.992;6.796;2022-08-18T02:17:56;17.80;99.90
54126;DHT22;40360;52.992;6.796;2022-08-18T02:20:22;17.80;99.90
54126;DHT22;40360;52.992;6.796;2022-08-18T02:22:48;17.80;99.90
54126;DHT22;40360;52.992;6.796;2022-08-18T02:25:16;17.80;99.90
54126;DHT22;40360;52.992;6.796;2022-08-18T02:27:42;17.80;99.90
54126;DHT22;40360;52.992;6.796;2022-08-18T02:30:10;17.90;99.90
54126;DHT22;40360;52.992;6.796;2022-08-18T02:32:37;17.90;99.90
54126;DHT22;40360;52.992;6.796;2022-08-18T02:35:04;18.00;99.90
54126;DHT22;40360;52.992;6.796;2022-08-18T02:37:31;18.00;99.90
54126;DHT22;40360;52.992;6.796;2022-08-18T02:39:56;18.00;99.90
54126;DHT22;40360;52.992;6.796;2022-08-18T02:42:22;18.10;99.90
54126;DHT22;40360;52.992;6.796;2022-08-18T02:44:48;18.10;99.90
54126;DHT22;40360;52.992;6.796;2022-08-18T02:47:14;18.10;99.90
54126;DHT22;40360;52.992;6.796;2022-08-18T02:49:39;18.10;99.90
54126;DHT22;40360;52.992;6.796;2022-08-18T02:52:05;18.10;99.90
54126;DHT22;40360;52.992;6.796;2022-08-18T02:54:31;18.10;99.90
54126;DHT22;40360;52.992;6.796;2022-08-18T02:56:57;18.20;99.90
54126;DHT22;40360;52.992;6.796;2022-08-18T02:59:24;18.10;99.90
54126;DHT22;40360;52.992;6.796;2022-08-18T03:01:53;18.20;99.90
54126;DHT22;40360;52.992;6.796;2022-08-18T03:04:22;18.20;99.90
54126;DHT22;40360;52.992;6.796;2022-08-18T03:06:50;18.20;99.90
54126;DHT22;40360;52.992;6.796;2022-08-18T03:09:17;18.30;99.90
54126;DHT22;40360;52.992;6.796;2022-08-18T03:11:43;18.20;99.90
54126;DHT22;40360;52.992;6.796;2022-08-18T03:14:10;18.20;99.90
54126;DHT22;40360;52.992;6.796;2022-08-18T03:16:38;18.30;99.90
54126;DHT22;40360;52.992;6.796;2022-08-18T03:19:05;18.30;99.90
54126;DHT22;40360;52.992;6.796;2022-08-18T03:21:31;18.30;99.90
54126;DHT22;40360;52.992;6.796;2022-08-18T03:24:01;18.30;99.90
54126;DHT22;40360;52.992;6.796;2022-08-18T03:26:27;18.30;99.90
54126;DHT22;40360;52.992;6.796;2022-08-18T03:28:54;18.30;99.90
54126;DHT22;40360;52.992;6.796;2022-08-18T03:31:21;18.40;99.90
54126;DHT22;40360;52.992;6.796;2022-08-18T03:33:47;18.40;99.90
54126;DHT22;40360;52.992;6.796;2022-08-18T03:36:20;18.30;99.90
54126;DHT22;40360;52.992;6.796;2022-08-18T03:38:47;18.70;99.90
54126;DHT22;40360;52.992;6.796;2022-08-18T03:41:14;18.30;99.90
54126;DHT22;40360;52.992;6.796;2022-08-18T03:43:40;18.30;99.90
54126;DHT22;40360;52.992;6.796;2022-08-18T03:46:08;18.30;99.90
54126;DHT22;40360;52.992;6.796;2022-08-18T03:48:39;18.30;99.90
54126;DHT22;40360;52.992;6.796;2022-08-18T03:51:09;18.30;99.90
54126;DHT22;40360;52.992;6.796;2022-08-18T03:53:36;18.30;99.90
54126;DHT22;40360;52.992;6.796;2022-08-18T03:56:06;18.30;99.90
54126;DHT22;40360;52.992;6.796;2022-08-18T03:58:34;18.30;99.90
54126;DHT22;40360;52.992;6.796;2022-08-18T04:01:01;18.30;99.90
54126;DHT22;40360;52.992;6.796;2022-08-18T04:03:28;18.20;99.90
54126;DHT22;40360;52.992;6.796;2022-08-18T04:05:54;18.20;99.90
54126;DHT22;40360;52.992;6.796;2022-08-18T04:08:20;18.20;99.90
54126;DHT22;40360;52.992;6.796;2022-08-18T04:10:46;19.00;99.90
54126;DHT22;40360;52.992;6.796;2022-08-18T04:13:11;18.20;99.90
54126;DHT22;40360;52.992;6.796;2022-08-18T04:15:37;18.20;99.90
54126;DHT22;40360;52.992;6.796;2022-08-18T04:18:02;19.10;99.90
54126;DHT22;40360;52.992;6.796;2022-08-18T04:20:29;18.20;99.90
54126;DHT22;40360;52.992;6.796;2022-08-18T04:22:57;18.30;99.90
54126;DHT22;40360;52.992;6.796;2022-08-18T04:25:23;18.30;99.90
54126;DHT22;40360;52.992;6.796;2022-08-18T04:27:50;18.30;99.90
54126;DHT22;40360;52.992;6.796;2022-08-18T04:30:15;18.30;99.90
54126;DHT22;40360;52.992;6.796;2022-08-18T04:32:41;18.30;99.90
54126;DHT22;40360;52.992;6.796;2022-08-18T04:35:08;18.30;99.90
54126;DHT22;40360;52.992;6.796;2022-08-18T04:37:36;18.60;99.90
54126;DHT22;40360;52.992;6.796;2022-08-18T04:40:03;18.30;99.90
54126;DHT22;40360;52.992;6.796;2022-08-18T04:42:29;18.30;99.90
54126;DHT22;40360;52.992;6.796;2022-08-18T04:44:55;18.30;99.90
54126;DHT22;40360;52.992;6.796;2022-08-18T04:47:20;18.30;99.90
54126;DHT22;40360;52.992;6.796;2022-08-18T04:49:46;18.60;99.90
54126;DHT22;40360;52.992;6.796;2022-08-18T04:52:12;18.30;99.90
54126;DHT22;40360;52.992;6.796;2022-08-18T04:54:56;19.00;99.90
54126;DHT22;40360;52.992;6.796;2022-08-18T04:57:22;18.30;99.90
54126;DHT22;40360;52.992;6.796;2022-08-18T04:59:50;18.30;99.90
54126;DHT22;40360;52.992;6.796;2022-08-18T05:02:17;18.30;99.90
54126;DHT22;40360;52.992;6.796;2022-08-18T05:22:07;18.30;99.90
54126;DHT22;40360;52.992;6.796;2022-08-18T05:24:33;18.30;99.90
54126;DHT22;40360;52.992;6.796;2022-08-18T05:27:00;18.30;99.90
54126;DHT22;40360;52.992;6.796;2022-08-18T05:29:26;18.30;99.90
54126;DHT22;40360;52.992;6.796;2022-08-18T05:31:53;18.30;99.90
54126;DHT22;40360;52.992;6.796;2022-08-18T05:34:20;18.30;99.90
54126;DHT22;40360;52.992;6.796;2022-08-18T05:44:21;18.40;99.90
54126;DHT22;40360;52.992;6.796;2022-08-18T05:46:55;18.40;99.90
54126;DHT22;40360;52.992;6.796;2022-08-18T05:49:23;18.50;99.90
54126;DHT22;40360;52.992;6.796;2022-08-18T05:51:52;18.50;99.90
54126;DHT22;40360;52.992;6.796;2022-08-18T05:54:20;18.50;99.90
54126;DHT22;40360;52.992;6.796;2022-08-18T05:57:08;18.50;99.90
54126;DHT22;40360;52.992;6.796;2022-08-18T05:59:37;18.50;99.90
54126;DHT22;40360;52.992;6.796;2022-08-18T06:02:36;18.60;99.90
54126;DHT22;40360;52.992;6.796;2022-08-18T06:05:09;18.60;99.90
54126;DHT22;40360;52.992;6.796;2022-08-18T06:08:28;18.70;99.90
54126;DHT22;40360;52.992;6.796;2022-08-18T06:10:29;18.80;99.90
54126;DHT22;40360;52.992;6.796;2022-08-18T06:12:57;18.80;99.90
54126;DHT22;40360;52.992;6.796;2022-08-18T06:15:59;18.90;99.90
54126;DHT22;40360;52.992;6.796;2022-08-18T06:21:44;18.90;99.90
54126;DHT22;40360;52.992;6.796;2022-08-18T06:30:09;19.00;99.90
54126;DHT22;40360;52.992;6.796;2022-08-18T06:41:22;19.10;99.90
54126;DHT22;40360;52.992;6.796;2022-08-18T06:44:05;19.10;99.90
54126;DHT22;40360;52.992;6.796;2022-08-18T06:47:12;19.10;99.90
54126;DHT22;40360;52.992;6.796;2022-08-18T06:49:56;19.10;99.90
54126;DHT22;40360;52.992;6.796;2022-08-18T06:54:57;19.20;99.90
54126;DHT22;40360;52.992;6.796;2022-08-18T06:57:31;19.20;99.90
54126;DHT22;40360;52.992;6.796;2022-08-18T07:02:49;19.30;99.90
54126;DHT22;40360;52.992;6.796;2022-08-18T07:05:22;19.30;99.90
54126;DHT22;40360;52.992;6.796;2022-08-18T07:08:42;19.30;99.90
54126;DHT22;40360;52.992;6.796;2022-08-18T07:11:20;19.30;99.90
54126;DHT22;40360;52.992;6.796;2022-08-18T07:13:51;19.30;99.90
54126;DHT22;40360;52.992;6.796;2022-08-18T07:16:29;19.30;99.90
54126;DHT22;40360;52.992;6.796;2022-08-18T07:19:09;19.30;99.90
54126;DHT22;40360;52.992;6.796;2022-08-18T07:21:37;19.30;99.90
54126;DHT22;40360;52.992;6.796;2022-08-18T07:24:12;19.30;99.90
54126;DHT22;40360;52.992;6.796;2022-08-18T07:29:25;19.40;99.90
54126;DHT22;40360;52.992;6.796;2022-08-18T07:31:53;19.50;99.90
54126;DHT22;40360;52.992;6.796;2022-08-18T07:34:35;19.50;99.90
54126;DHT22;40360;52.992;6.796;2022-08-18T07:37:31;19.50;99.90
54126;DHT22;40360;52.992;6.796;2022-08-18T07:42:50;19.70;99.90
54126;DHT22;40360;52.992;6.796;2022-08-18T07:47:59;20.40;99.90
54126;DHT22;40360;52.992;6.796;2022-08-18T07:50:26;20.10;99.90
54126;DHT22;40360;52.992;6.796;2022-08-18T08:07:54;20.10;99.90
54126;DHT22;40360;52.992;6.796;2022-08-18T08:10:44;20.10;99.90
54126;DHT22;40360;52.992;6.796;2022-08-18T08:16:10;19.90;99.90
54126;DHT22;40360;52.992;6.796;2022-08-18T08:19:07;19.90;99.90
54126;DHT22;40360;52.992;6.796;2022-08-18T08:21:59;19.90;99.90
54126;DHT22;40360;52.992;6.796;2022-08-18T08:27:36;19.90;99.90
54126;DHT22;40360;52.992;6.796;2022-08-18T08:37:58;19.90;99.90
54126;DHT22;40360;52.992;6.796;2022-08-18T08:40:32;19.90;99.90
54126;DHT22;40360;52.992;6.796;2022-08-18T08:45:34;20.40;99.90
54126;DHT22;40360;52.992;6.796;2022-08-18T08:48:08;20.10;99.90
54126;DHT22;40360;52.992;6.796;2022-08-18T08:50:45;20.10;99.90
54126;DHT22;40360;52.992;6.796;2022-08-18T08:55:59;20.20;99.90
54126;DHT22;40360;52.992;6.796;2022-08-18T08:58:28;20.50;99.90
54126;DHT22;40360;52.992;6.796;2022-08-18T09:00:55;20.30;99.90
54126;DHT22;40360;52.992;6.796;2022-08-18T09:03:55;20.30;99.90
54126;DHT22;40360;52.992;6.796;2022-08-18T09:07:33;20.30;99.90
54126;DHT22;40360;52.992;6.796;2022-08-18T09:14:59;20.40;99.90
54126;DHT22;40360;52.992;6.796;2022-08-18T09:18:32;20.40;99.90
54126;DHT22;40360;52.992;6.796;2022-08-18T09:21:12;20.40;99.90
54126;DHT22;40360;52.992;6.796;2022-08-18T09:23:45;20.50;99.90
54126;DHT22;40360;52.992;6.796;2022-08-18T09:26:39;20.50;99.90
54126;DHT22;40360;52.992;6.796;2022-08-18T09:29:25;20.50;99.90
54126;DHT22;40360;52.992;6.796;2022-08-18T09:41:09;20.60;99.90
54126;DHT22;40360;52.992;6.796;2022-08-18T09:44:02;20.60;99.90
54126;DHT22;40360;52.992;6.796;2022-08-18T09:51:56;20.90;99.90
54126;DHT22;40360;52.992;6.796;2022-08-18T09:54:28;21.00;99.90
54126;DHT22;40360;52.992;6.796;2022-08-18T09:57:04;20.90;99.90
54126;DHT22;40360;52.992;6.796;2022-08-18T10:01:58;21.00;99.90
54126;DHT22;40360;52.992;6.796;2022-08-18T10:04:29;21.00;99.90
54126;DHT22;40360;52.992;6.796;2022-08-18T10:07:14;21.00;99.90
54126;DHT22;40360;52.992;6.796;2022-08-18T10:09:51;21.30;99.90
54126;DHT22;40360;52.992;6.796;2022-08-18T10:12:42;21.00;99.90
54126;DHT22;40360;52.992;6.796;2022-08-18T10:15:24;21.10;99.90
54126;DHT22;40360;52.992;6.796;2022-08-18T10:21:16;21.00;99.90
54126;DHT22;40360;52.992;6.796;2022-08-18T10:29:09;21.20;99.90
54126;DHT22;40360;52.992;6.796;2022-08-18T10:34:42;21.10;99.90
54126;DHT22;40360;52.992;6.796;2022-08-18T10:37:21;21.20;99.90
54126;DHT22;40360;52.992;6.796;2022-08-18T10:39:50;21.30;99.90
54126;DHT22;40360;52.992;6.796;2022-08-18T10:42:27;21.30;99.90
54126;DHT22;40360;52.992;6.796;2022-08-18T10:45:13;21.30;99.90
54126;DHT22;40360;52.992;6.796;2022-08-18T10:47:39;21.40;99.90
54126;DHT22;40360;52.992;6.796;2022-08-18T10:50:27;21.70;99.90
54126;DHT22;40360;52.992;6.796;2022-08-18T10:53:02;21.40;99.90
54126;DHT22;40360;52.992;6.796;2022-08-18T10:55:42;21.50;99.90
54126;DHT22;40360;52.992;6.796;2022-08-18T10:58:39;21.50;99.90
54126;DHT22;40360;52.992;6.796;2022-08-18T11:01:30;21.50;99.90
54126;DHT22;40360;52.992;6.796;2022-08-18T11:09:29;21.60;99.90
54126;DHT22;40360;52.992;6.796;2022-08-18T11:11:57;21.40;99.90
54126;DHT22;40360;52.992;6.796;2022-08-18T11:20:16;21.60;99.90
54126;DHT22;40360;52.992;6.796;2022-08-18T11:22:55;21.60;99.90
54126;DHT22;40360;52.992;6.796;2022-08-18T11:25:32;21.80;99.90
54126;DHT22;40360;52.992;6.796;2022-08-18T11:27:58;21.70;99.90
54126;DHT22;40360;52.992;6.796;2022-08-18T11:30:28;21.80;99.90
54126;DHT22;40360;52.992;6.796;2022-08-18T11:32:55;21.90;99.90
54126;DHT22;40360;52.992;6.796;2022-08-18T11:35:53;22.00;99.90
54126;DHT22;40360;52.992;6.796;2022-08-18T11:38:22;22.00;99.90
54126;DHT22;40360;52.992;6.796;2022-08-18T11:40:50;21.90;99.90
54126;DHT22;40360;52.992;6.796;2022-08-18T11:43:29;22.00;99.90
54126;DHT22;40360;52.992;6.796;2022-08-18T11:46:01;22.00;99.90
54126;DHT22;40360;52.992;6.796;2022-08-18T11:51:28;22.30;99.90
54126;DHT22;40360;52.992;6.796;2022-08-18T11:54:17;22.10;99.90
54126;DHT22;40360;52.992;6.796;2022-08-18T11:56:43;22.20;99.90
54126;DHT22;40360;52.992;6.796;2022-08-18T12:01:51;22.40;99.90
54126;DHT22;40360;52.992;6.796;2022-08-18T12:09:31;22.80;99.90
54126;DHT22;40360;52.992;6.796;2022-08-18T12:12:00;22.90;99.90
54126;DHT22;40360;52.992;6.796;2022-08-18T12:14:29;23.30;99.90
54126;DHT22;40360;52.992;6.796;2022-08-18T12:16:56;23.60;99.90
54126;DHT22;40360;52.992;6.796;2022-08-18T12:19:23;24.20;99.90
54126;DHT22;40360;52.992;6.796;2022-08-18T12:21:55;24.10;99.90
54126;DHT22;40360;52.992;6.796;2022-08-18T12:24:25;23.40;99.90
54126;DHT22;40360;52.992;6.796;2022-08-18T12:26:51;23.10;99.90
54126;DHT22;40360;52.992;6.796;2022-08-18T12:29:18;22.90;99.90
54126;DHT22;40360;52.992;6.796;2022-08-18T12:31:49;22.80;99.90
54126;DHT22;40360;52.992;6.796;2022-08-18T12:34:20;23.20;99.90
54126;DHT22;40360;52.992;6.796;2022-08-18T12:36:50;23.00;99.90
54126;DHT22;40360;52.992;6.796;2022-08-18T12:39:16;22.50;99.90
54126;DHT22;40360;52.992;6.796;2022-08-18T12:41:42;22.50;99.90
54126;DHT22;40360;52.992;6.796;2022-08-18T12:44:08;22.50;99.90
54126;DHT22;40360;52.992;6.796;2022-08-18T12:46:34;22.50;99.90
54126;DHT22;40360;52.992;6.796;2022-08-18T12:49:02;22.60;99.90
54126;DHT22;40360;52.992;6.796;2022-08-18T12:51:29;22.70;99.90
54126;DHT22;40360;52.992;6.796;2022-08-18T12:53:54;23.10;99.90
54126;DHT22;40360;52.992;6.796;2022-08-18T12:56:24;23.30;99.90
54126;DHT22;40360;52.992;6.796;2022-08-18T12:58:50;23.50;99.90
54126;DHT22;40360;52.992;6.796;2022-08-18T13:01:19;23.60;99.90
54126;DHT22;40360;52.992;6.796;2022-08-18T13:03:46;23.80;99.90
54126;DHT22;40360;52.992;6.796;2022-08-18T13:06:13;24.20;99.90
54126;DHT22;40360;52.992;6.796;2022-08-18T13:08:39;24.30;99.90
54126;DHT22;40360;52.992;6.796;2022-08-18T13:11:05;24.20;99.90
54126;DHT22;40360;52.992;6.796;2022-08-18T13:13:38;24.30;99.90
54126;DHT22;40360;52.992;6.796;2022-08-18T13:16:05;24.20;99.90
54126;DHT22;40360;52.992;6.796;2022-08-18T13:18:33;24.20;99.90
54126;DHT22;40360;52.992;6.796;2022-08-18T13:20:59;24.50;99.90
54126;DHT22;40360;52.992;6.796;2022-08-18T13:23:26;24.40;99.90
54126;DHT22;40360;52.992;6.796;2022-08-18T13:25:52;24.40;99.90
54126;DHT22;40360;52.992;6.796;2022-08-18T13:28:17;24.40;99.90
54126;DHT22;40360;52.992;6.796;2022-08-18T13:30:43;24.30;99.90
54126;DHT22;40360;52.992;6.796;2022-08-18T13:33:10;24.50;99.90
54126;DHT22;40360;52.992;6.796;2022-08-18T13:35:36;24.80;99.90
54126;DHT22;40360;52.992;6.796;2022-08-18T13:38:02;25.00;99.90
54126;DHT22;40360;52.992;6.796;2022-08-18T13:40:29;25.00;99.90
54126;DHT22;40360;52.992;6.796;2022-08-18T13:42:55;25.20;99.90
54126;DHT22;40360;52.992;6.796;2022-08-18T13:45:21;25.20;99.90
54126;DHT22;40360;52.992;6.796;2022-08-18T13:47:48;25.10;99.90
54126;DHT22;40360;52.992;6.796;2022-08-18T13:50:15;24.90;99.90
54126;DHT22;40360;52.992;6.796;2022-08-18T13:52:41;25.00;99.90
54126;DHT22;40360;52.992;6.796;2022-08-18T13:55:13;24.60;99.90
54126;DHT22;40360;52.992;6.796;2022-08-18T13:57:40;24.70;99.90
54126;DHT22;40360;52.992;6.796;2022-08-18T14:00:13;25.30;99.90
54126;DHT22;40360;52.992;6.796;2022-08-18T14:02:40;24.70;99.90
54126;DHT22;40360;52.992;6.796;2022-08-18T14:05:06;24.60;99.90
54126;DHT22;40360;52.992;6.796;2022-08-18T14:07:34;24.40;99.90
54126;DHT22;40360;52.992;6.796;2022-08-18T14:10:01;24.20;99.90
54126;DHT22;40360;52.992;6.796;2022-08-18T14:12:27;24.20;99.90
54126;DHT22;40360;52.992;6.796;2022-08-18T14:14:54;24.30;99.90
54126;DHT22;40360;52.992;6.796;2022-08-18T14:17:21;24.30;99.90
54126;DHT22;40360;52.992;6.796;2022-08-18T14:19:47;24.20;99.90
54126;DHT22;40360;52.992;6.796;2022-08-18T14:22:32;24.10;99.90
54126;DHT22;40360;52.992;6.796;2022-08-18T14:25:16;24.10;99.90
54126;DHT22;40360;52.992;6.796;2022-08-18T14:28:00;23.90;99.90
54126;DHT22;40360;52.992;6.796;2022-08-18T14:30:26;23.80;99.90
54126;DHT22;40360;52.992;6.796;2022-08-18T14:32:51;24.40;99.90
54126;DHT22;40360;52.992;6.796;2022-08-18T14:35:17;23.60;99.90
54126;DHT22;40360;52.992;6.796;2022-08-18T14:37:44;23.70;99.90
54126;DHT22;40360;52.992;6.796;2022-08-18T14:40:10;23.80;99.90
54126;DHT22;40360;52.992;6.796;2022-08-18T14:42:36;23.50;99.90
54126;DHT22;40360;52.992;6.796;2022-08-18T14:45:02;24.00;99.90
54126;DHT22;40360;52.992;6.796;2022-08-18T14:47:28;23.50;99.90
54126;DHT22;40360;52.992;6.796;2022-08-18T14:49:54;23.70;99.90
54126;DHT22;40360;52.992;6.796;2022-08-18T14:52:22;23.60;99.90
54126;DHT22;40360;52.992;6.796;2022-08-18T14:54:48;24.50;99.90
54126;DHT22;40360;52.992;6.796;2022-08-18T14:57:14;24.40;99.90
54126;DHT22;40360;52.992;6.796;2022-08-18T14:59:40;23.60;99.90
54126;DHT22;40360;52.992;6.796;2022-08-18T15:02:08;23.80;99.90
54126;DHT22;40360;52.992;6.796;2022-08-18T15:04:34;23.90;99.90
54126;DHT22;40360;52.992;6.796;2022-08-18T15:07:00;23.70;99.90
54126;DHT22;40360;52.992;6.796;2022-08-18T15:09:27;23.60;99.90
54126;DHT22;40360;52.992;6.796;2022-08-18T15:11:55;23.80;99.90
54126;DHT22;40360;52.992;6.796;2022-08-18T15:14:23;23.50;99.90
54126;DHT22;40360;52.992;6.796;2022-08-18T15:16:50;23.40;99.90
54126;DHT22;40360;52.992;6.796;2022-08-18T15:19:15;24.30;99.90
54126;DHT22;40360;52.992;6.796;2022-08-18T15:21:41;24.10;99.90
54126;DHT22;40360;52.992;6.796;2022-08-18T15:24:25;24.60;99.90
54126;DHT22;40360;52.992;6.796;2022-08-18T15:27:09;25.70;99.90
54126;DHT22;40360;52.992;6.796;2022-08-18T15:29:34;26.00;99.90
54126;DHT22;40360;52.992;6.796;2022-08-18T15:32:00;26.70;99.90
54126;DHT22;40360;52.992;6.796;2022-08-18T15:34:27;26.90;99.90
54126;DHT22;40360;52.992;6.796;2022-08-18T15:36:53;27.50;99.90
54126;DHT22;40360;52.992;6.796;2022-08-18T15:39:20;28.10;99.90
54126;DHT22;40360;52.992;6.796;2022-08-18T15:41:46;29.20;99.90
54126;DHT22;40360;52.992;6.796;2022-08-18T15:44:18;28.80;99.90
54126;DHT22;40360;52.992;6.796;2022-08-18T15:46:45;29.70;99.90
54126;DHT22;40360;52.992;6.796;2022-08-18T15:49:12;29.50;99.90
54126;DHT22;40360;52.992;6.796;2022-08-18T15:51:39;29.80;99.80
54126;DHT22;40360;52.992;6.796;2022-08-18T15:54:07;30.00;99.30
54126;DHT22;40360;52.992;6.796;2022-08-18T15:56:33;28.40;99.90
54126;DHT22;40360;52.992;6.796;2022-08-18T15:59:00;27.60;99.90
54126;DHT22;40360;52.992;6.796;2022-08-18T16:01:33;27.10;99.90
54126;DHT22;40360;52.992;6.796;2022-08-18T16:04:06;26.40;99.90
54126;DHT22;40360;52.992;6.796;2022-08-18T16:06:33;26.00;99.90
54126;DHT22;40360;52.992;6.796;2022-08-18T16:08:59;25.50;99.90
54126;DHT22;40360;52.992;6.796;2022-08-18T16:11:25;25.20;99.90
54126;DHT22;40360;52.992;6.796;2022-08-18T16:13:51;24.80;99.90
54126;DHT22;40360;52.992;6.796;2022-08-18T16:16:22;24.60;99.90
54126;DHT22;40360;52.992;6.796;2022-08-18T16:18:48;24.20;99.90
54126;DHT22;40360;52.992;6.796;2022-08-18T16:21:18;24.00;99.90
54126;DHT22;40360;52.992;6.796;2022-08-18T16:23:46;23.70;99.90
54126;DHT22;40360;52.992;6.796;2022-08-18T16:26:13;23.40;99.90
54126;DHT22;40360;52.992;6.796;2022-08-18T16:28:41;23.30;99.90
54126;DHT22;40360;52.992;6.796;2022-08-18T16:31:07;23.20;99.90
54126;DHT22;40360;52.992;6.796;2022-08-18T16:33:34;22.90;99.90
54126;DHT22;40360;52.992;6.796;2022-08-18T16:36:04;22.90;99.90
54126;DHT22;40360;52.992;6.796;2022-08-18T16:38:31;22.60;99.90
54126;DHT22;40360;52.992;6.796;2022-08-18T16:41:06;22.90;99.90
54126;DHT22;40360;52.992;6.796;2022-08-18T16:43:33;22.60;99.90
54126;DHT22;40360;52.992;6.796;2022-08-18T16:45:59;22.60;99.90
54126;DHT22;40360;52.992;6.796;2022-08-18T16:48:28;22.50;99.90
54126;DHT22;40360;52.992;6.796;2022-08-18T16:50:53;22.50;99.90
54126;DHT22;40360;52.992;6.796;2022-08-18T16:53:19;22.40;99.90
54126;DHT22;40360;52.992;6.796;2022-08-18T16:55:45;22.30;99.90
54126;DHT22;40360;52.992;6.796;2022-08-18T16:58:10;22.40;99.90
54126;DHT22;40360;52.992;6.796;2022-08-18T17:00:55;22.10;99.90
54126;DHT22;40360;52.992;6.796;2022-08-18T17:03:39;22.10;99.90
54126;DHT22;40360;52.992;6.796;2022-08-18T17:06:23;22.00;99.90
54126;DHT22;40360;52.992;6.796;2022-08-18T17:08:54;22.00;99.90
54126;DHT22;40360;52.992;6.796;2022-08-18T17:11:21;21.80;99.90
54126;DHT22;40360;52.992;6.796;2022-08-18T17:13:48;21.80;99.90
54126;DHT22;40360;52.992;6.796;2022-08-18T17:16:15;21.70;99.90
54126;DHT22;40360;52.992;6.796;2022-08-18T17:18:42;22.10;99.90
54126;DHT22;40360;52.992;6.796;2022-08-18T17:21:11;21.40;99.90
54126;DHT22;40360;52.992;6.796;2022-08-18T17:23:37;21.90;99.90
54126;DHT22;40360;52.992;6.796;2022-08-18T17:26:04;21.40;99.90
54126;DHT22;40360;52.992;6.796;2022-08-18T17:28:45;21.40;99.90
54126;DHT22;40360;52.992;6.796;2022-08-18T17:31:13;21.40;99.90
54126;DHT22;40360;52.992;6.796;2022-08-18T17:33:42;21.30;99.90
54126;DHT22;40360;52.992;6.796;2022-08-18T17:36:15;21.30;99.90
54126;DHT22;40360;52.992;6.796;2022-08-18T17:39:10;21.20;99.90
54126;DHT22;40360;52.992;6.796;2022-08-18T17:41:36;21.30;99.90
54126;DHT22;40360;52.992;6.796;2022-08-18T17:44:22;21.10;99.90
54126;DHT22;40360;52.992;6.796;2022-08-18T17:46:49;21.10;99.90
54126;DHT22;40360;52.992;6.796;2022-08-18T17:49:26;21.10;99.90
54126;DHT22;40360;52.992;6.796;2022-08-18T17:52:14;21.60;99.90
54126;DHT22;40360;52.992;6.796;2022-08-18T17:54:45;21.50;99.90
54126;DHT22;40360;52.992;6.796;2022-08-18T17:57:30;20.90;99.90
54126;DHT22;40360;52.992;6.796;2022-08-18T18:02:34;20.80;99.90
54126;DHT22;40360;52.992;6.796;2022-08-18T18:05:03;21.20;99.90
54126;DHT22;40360;52.992;6.796;2022-08-18T18:10:21;20.70;99.90
54126;DHT22;40360;52.992;6.796;2022-08-18T18:15:33;20.60;99.90
54126;DHT22;40360;52.992;6.796;2022-08-18T18:18:37;20.50;99.90
54126;DHT22;40360;52.992;6.796;2022-08-18T18:21:07;20.40;99.90
54126;DHT22;40360;52.992;6.796;2022-08-18T18:23:49;20.40;99.90
54126;DHT22;40360;52.992;6.796;2022-08-18T18:26:33;20.30;99.90
54126;DHT22;40360;52.992;6.796;2022-08-18T18:29:18;20.30;99.90
54126;DHT22;40360;52.992;6.796;2022-08-18T18:32:03;20.20;99.90